This is the latest recevied weather packets stored in our database for station/object LRBO. If no packets are shown the sender has not sent any weather packets the latest 10 day(s).
| Time | Temp. | Humidity | Pressure | Rain* | Wind** | Luminosity | Snow |
|---|---|---|---|---|---|---|---|
| 1777881833 | 17.22° C | 49% | 1016 hPa | - | - | - | - |
| 1777877333 | 15° C | 48% | 1016 hPa | - | - | - | - |
| 1777876434 | 15° C | 48% | 1016 hPa | - | - | - | - |
| 1777875535 | 15° C | 48% | 1016 hPa | - | - | - | - |
| 1777874634 | 15° C | 48% | 1016 hPa | - | - | - | - |
| 1777873734 | 12.22° C | 58% | 1016 hPa | - | - | - | - |
| 1777872835 | 12.22° C | 58% | 1016 hPa | - | - | - | - |
| 1777871934 | 12.22° C | 58% | 1016 hPa | - | - | - | - |
| 1777871043 | 12.22° C | 58% | 1016 hPa | - | - | - | - |
| 1777870134 | 7.22° C | 66% | 1016 hPa | - | - | - | - |
| 1777869233 | 7.22° C | 66% | 1016 hPa | - | - | - | - |
| 1777868334 | 7.22° C | 66% | 1016 hPa | - | - | - | - |
| 1777867433 | 7.22° C | 66% | 1016 hPa | - | - | - | - |
| 1777866534 | 6.11° C | 61% | 1016 hPa | - | - | - | - |
| 1777839534 | 6.11° C | 61% | 1019 hPa | - | - | - | - |
| 1777833233 | 11.11° C | 44% | 1019 hPa | - | - | - | - |
| 1777826033 | 15° C | 34% | 1019 hPa | - | - | - | - |
| 1777821534 | 15° C | 31% | 1019 hPa | - | - | - | - |
| 1777817935 | 16.11° C | 34% | 1020 hPa | - | - | - | - |
| 1777810748 | 15° C | 39% | 1021 hPa | - | - | - | - |
| 1777809834 | 15° C | 39% | 1021 hPa | - | - | - | - |
| 1777802634 | 15° C | 39% | 1023 hPa | - | - | - | - |
| 1777801734 | 13.89° C | 41% | 1023 hPa | - | - | - | - |
| 1777800834 | 13.89° C | 41% | 1023 hPa | - | - | - | - |
| 1777799934 | 13.89° C | 41% | 1023 hPa | - | - | - | - |
* Rain since midnight (hover to see other rain measurements)
** Current wind speed in m/s (hover to see current wind gust speed)